Flight Track Log - Related Links

Times and Time Zones

All times are in EDT time to prevent confusion due to time zone crossing. See the AVN10 flight status page for this flight to view local times or setup timezone preferences in your user account.

Time Position Orientation Groundspeed Altitude Reporting Facility
EDT Latitude Longitude Course Direction KTS MPH feet Rate Location/Type
Sun 04:08:00 PM -18.0530 168.0069 220° Southwest  Level Estimated
Sun 04:09:00 PM -18.1414 167.9285 220° Southwest  Level Estimated
Sun 04:10:00 PM -18.2297 167.8501 220° Southwest  Level Estimated
Sun 04:11:00 PM -18.3180 167.7715 220° Southwest  Level Estimated
Sun 04:12:00 PM -18.4063 167.6929 220° Southwest  Level Estimated
Sun 04:13:00 PM -18.4945 167.6141 220° Southwest  Level Estimated
Sun 04:14:00 PM -18.5827 167.5353 220° Southwest  Level Estimated
Sun 04:15:00 PM -18.6708 167.4564 220° Southwest  Level Estimated
Sun 04:16:00 PM -18.7589 167.3775 220° Southwest  Level Estimated
Sun 04:17:00 PM -18.8470 167.2984 220° Southwest  Level Estimated
Sun 04:18:00 PM -18.9351 167.2193 220° Southwest  Level Estimated
Sun 04:19:00 PM -19.0231 167.1400 220° Southwest  Level Estimated
Sun 04:20:00 PM -19.1111 167.0607 220° Southwest  Level Estimated
Sun 04:21:00 PM -19.1991 166.9814 220° Southwest  Level Estimated
Sun 04:22:00 PM -19.2870 166.9019 220° Southwest  Level Estimated
Sun 04:23:00 PM -19.3749 166.8223 220° Southwest  Level Estimated
Sun 04:24:00 PM -19.4627 166.7427 221° Southwest  Level Estimated
Sun 04:25:00 PM -19.5506 166.6629 221° Southwest  Level Estimated
Sun 04:26:00 PM -19.6383 166.5831 221° Southwest  Level Estimated
Sun 04:27:00 PM -19.7261 166.5032 221° Southwest  Level Estimated
Sun 04:28:00 PM -19.8138 166.4232 221° Southwest  Level Estimated
Sun 04:29:00 PM -19.9015 166.3432 221° Southwest  Level Estimated
Sun 04:30:00 PM -19.9891 166.2630 221° Southwest  Level Estimated
Sun 04:31:00 PM -20.0767 166.1827 221° Southwest  Level Estimated
Sun 04:32:00 PM -20.1643 166.1024 221° Southwest  Level Estimated
Sun 04:33:00 PM -20.2518 166.0219 221° Southwest  Level Estimated
Sun 04:34:00 PM -20.3393 165.9414 221° Southwest  Level Estimated
Sun 04:35:00 PM -20.4268 165.8608 221° Southwest  Level Estimated
Sun 04:36:00 PM -20.5142 165.7801 221° Southwest  Level Estimated
Sun 04:37:00 PM -20.6016 165.6993 221° Southwest  Level Estimated
Sun 04:38:00 PM -20.6889 165.6184 221° Southwest  Level Estimated
Sun 04:39:00 PM -20.7762 165.5374 221° Southwest  Level Estimated
Sun 04:40:00 PM -20.8635 165.4563 221° Southwest  Level Estimated
Sun 04:41:00 PM -20.9508 165.3751 221° Southwest  Level Estimated
Sun 04:42:00 PM -21.0379 165.2938 221° Southwest  Level Estimated
Sun 04:43:00 PM -21.1251 165.2125 221° Southwest  Level Estimated
Sun 04:44:00 PM -21.2122 165.1310 221° Southwest  Level Estimated
Sun 04:45:00 PM -21.2993 165.0494 221° Southwest  Level Estimated
Sun 04:46:00 PM -21.3863 164.9678 221° Southwest  Level Estimated
Sun 04:47:00 PM -21.4733 164.8860 221° Southwest  Level Estimated
Sun 04:48:00 PM -21.5603 164.8042 221° Southwest  Level Estimated
Sun 04:49:00 PM -21.6472 164.7222 221° Southwest  Level Estimated
Sun 04:50:00 PM -21.7341 164.6402 221° Southwest  Level Estimated
Sun 04:51:00 PM -21.8209 164.5580 221° Southwest  Level Estimated
Sun 04:52:00 PM -21.9077 164.4758 221° Southwest  Level Estimated
Sun 04:53:00 PM -21.9945 164.3934 221° Southwest  Level Estimated
Sun 04:54:00 PM -22.0812 164.3110 221° Southwest  Level Estimated
Sun 04:55:00 PM -22.1679 164.2284 221° Southwest  Level Estimated
Sun 04:56:00 PM -22.2545 164.1458 221° Southwest  Level Estimated
Sun 04:57:00 PM -22.3411 164.0630 221° Southwest  Level Estimated
Sun 04:58:00 PM -22.4276 163.9802 221° Southwest  Level Estimated
Sun 04:59:00 PM -22.5141 163.8972 222° Southwest  Level Estimated
Sun 05:00:00 PM -22.6006 163.8141 222° Southwest  Level Estimated
Sun 05:01:00 PM -22.6870 163.7310 222° Southwest  Level Estimated
Sun 05:02:00 PM -22.7734 163.6477 222° Southwest  Level Estimated
Sun 05:03:00 PM -22.8597 163.5643 222° Southwest  Level Estimated
Sun 05:04:00 PM -22.9460 163.4808 222° Southwest  Level Estimated
Sun 05:05:00 PM -23.0323 163.3972 222° Southwest  Level Estimated
Sun 05:06:00 PM -23.1185 163.3136 222° Southwest  Level Estimated
Sun 05:07:00 PM -23.2046 163.2297 222° Southwest  Level Estimated
Sun 05:08:00 PM -23.2908 163.1458 222° Southwest  Level Estimated
Sun 05:09:00 PM -23.3768 163.0618 222° Southwest  Level Estimated
Sun 05:10:00 PM -23.4629 162.9777 222° Southwest  Level Estimated
Sun 05:11:00 PM -23.5488 162.8934 222° Southwest  Level Estimated
Sun 05:12:00 PM -23.6348 162.8091 222° Southwest  Level Estimated
Sun 05:13:00 PM -23.7207 162.7246 222° Southwest  Level Estimated
Sun 05:14:00 PM -23.8065 162.6400 222° Southwest  Level Estimated
Sun 05:15:00 PM -23.8923 162.5554 222° Southwest  Level Estimated
Sun 05:16:00 PM -23.9781 162.4706 222° Southwest  Level Estimated
Sun 05:17:00 PM -24.0637 162.3857 222° Southwest  Level Estimated
Sun 05:18:00 PM -24.1494 162.3006 222° Southwest  Level Estimated
Sun 05:19:00 PM -24.2350 162.2155 222° Southwest  Level Estimated
Sun 05:20:00 PM -24.3206 162.1302 222° Southwest  Level Estimated
Sun 05:20:05 PM -24.6998 163.3103 224° Southwest 34,000  Level Aus ATC (Calculated)
Sun 05:22:00 PM -24.8419 163.1481 226° Southwest  Level Estimated
Sun 05:23:00 PM -24.9160 163.0633 226° Southwest  Level Estimated
Sun 05:23:05 PM -25.0381 162.9328 224° Southwest 34,000  Level Aus ATC (Calculated)
Sun 05:25:00 PM -25.2420 162.7038 224° Southwest 34,000 Level Aus ATC (Calculated)
Sun 05:25:00 PM -25.1816 162.7717 225° Southwest  Level FlightAware Approximate
Sun 05:26:00 PM -25.3167 162.6195 226° Southwest  Level FlightAware Approximate
Sun 05:27:00 PM -25.3915 162.5350 226° Southwest  Level FlightAware Approximate
Sun 05:28:00 PM -25.4661 162.4505 226° Southwest  Level FlightAware Approximate
Sun 05:28:00 PM -25.5281 162.3804 224° Southwest 34,000  Level Aus ATC (Calculated)
Sun 05:28:41 PM -25.6143 162.2823 224° Southwest 34,000 Level Aus ATC (Calculated)
Sun 05:29:00 PM -25.6026 162.2956 226° Southwest  Level FlightAware Approximate
Sun 05:30:00 PM -25.7129 162.1701 226° Southwest  Level FlightAware Approximate
Sun 05:31:00 PM -25.7878 162.0847 226° Southwest  Level FlightAware Approximate
Sun 05:32:00 PM -25.8625 161.9993 226° Southwest  Level FlightAware Approximate
Sun 05:33:00 PM -25.9373 161.9137 226° Southwest  Level FlightAware Approximate
Sun 05:34:00 PM -26.0119 161.8280 226° Southwest  Level FlightAware Approximate
Sun 05:35:00 PM -26.0866 161.7422 226° Southwest  Level FlightAware Approximate
Sun 05:36:00 PM -26.1611 161.6562 226° Southwest  Level FlightAware Approximate
Sun 05:37:00 PM -26.2356 161.5702 226° Southwest  Level FlightAware Approximate
Sun 05:38:00 PM -26.3101 161.4841 226° Southwest  Level FlightAware Approximate
Sun 05:39:00 PM -26.3845 161.3978 226° Southwest  Level FlightAware Approximate
Sun 05:40:00 PM -26.4589 161.3115 226° Southwest  Level FlightAware Approximate
Sun 05:41:00 PM -26.5332 161.2250 226° Southwest  Level FlightAware Approximate
Sun 05:42:00 PM -26.6075 161.1384 226° Southwest  Level FlightAware Approximate
Sun 05:43:00 PM -26.6817 161.0517 226° Southwest  Level FlightAware Approximate
Sun 05:44:00 PM -26.7558 160.9649 226° Southwest  Level FlightAware Approximate
Sun 05:45:00 PM -26.8300 160.8780 226° Southwest  Level FlightAware Approximate
Sun 05:46:00 PM -26.9040 160.7910 226° Southwest  Level FlightAware Approximate
Sun 05:46:53 PM -27.4368 160.1595 223° Southwest 34,000  Level Aus ATC (Calculated)
Sun 05:47:00 PM -26.9780 160.7038 226° Southwest  Level FlightAware Approximate
Sun 05:48:00 PM -27.5190 160.0612 227° Southwest  Level FlightAware Approximate
Sun 05:48:53 PM -27.6418 159.9139 223° Southwest 34,000  Level Aus ATC (Calculated)
Sun 05:49:00 PM -27.5925 159.9731 227° Southwest  Level FlightAware Approximate
Sun 05:50:00 PM -27.7238 159.8153 227° Southwest  Level FlightAware Approximate
Sun 05:50:53 PM -27.8336 159.6829 222° Southwest 34,000  Level Aus ATC (Calculated)
Sun 05:51:00 PM -27.7972 159.7269 227° Southwest  Level FlightAware Approximate
Sun 05:52:00 PM -27.9155 159.5839 227° Southwest  Level FlightAware Approximate
Sun 05:53:00 PM -27.9887 159.4952 227° Southwest  Level FlightAware Approximate
Sun 05:54:00 PM -28.0619 159.4063 227° Southwest  Level FlightAware Approximate
Sun 05:55:00 PM -28.1350 159.3173 227° Southwest  Level FlightAware Approximate
Sun 05:56:00 PM -28.2081 159.2282 227° Southwest  Level FlightAware Approximate
Sun 05:56:48 PM -28.4174 158.9716 220° Southwest 36,000  Level Aus ATC (Calculated)
Sun 05:57:00 PM -28.2811 159.1389 227° Southwest  Level FlightAware Approximate
Sun 05:58:00 PM -28.5048 158.8640 227° Southwest  Level FlightAware Approximate
Sun 05:59:00 PM -28.5775 158.7742 227° Southwest  Level FlightAware Approximate
Sun 05:59:51 PM -28.6617 158.6701 217° Southwest 36,000  Level Aus ATC (Calculated)
Sun 06:00:00 PM -28.6502 158.6843 227° Southwest  Level FlightAware Approximate
Sun 06:01:00 PM -28.7464 158.5650 227° Southwest  Level FlightAware Approximate
Sun 06:02:00 PM -28.8200 158.4735 227° Southwest  Level FlightAware Approximate
Sun 06:03:00 PM -28.8936 158.3819 227° Southwest  Level FlightAware Approximate
Sun 06:04:00 PM -28.9670 158.2901 228° Southwest  Level FlightAware Approximate
Sun 06:04:47 PM -29.1077 158.1138 195° South 36,000  Level Aus ATC (Calculated)
Sun 06:05:00 PM -29.0404 158.1982 228° Southwest  Level FlightAware Approximate
Sun 06:06:00 PM -29.2015 157.9959 228° Southwest  Level FlightAware Approximate
Sun 06:07:00 PM -29.2784 157.8988 228° Southwest  Level FlightAware Approximate
Sun 06:08:00 PM -29.3553 157.8017 228° Southwest  Level FlightAware Approximate
Sun 06:09:00 PM -29.4321 157.7043 228° Southwest  Level FlightAware Approximate
Sun 06:09:47 PM -29.5514 157.5526 71° East 36,000  Level Aus ATC (Calculated)
Sun 06:10:00 PM -29.5088 157.6069 228° Southwest  Level FlightAware Approximate
Sun 06:11:00 PM -29.6446 157.4337 228° Southwest  Level FlightAware Approximate
Sun 06:12:00 PM -29.7212 157.3358 228° Southwest  Level FlightAware Approximate
Sun 06:13:00 PM -29.7976 157.2378 228° Southwest  Level FlightAware Approximate
Sun 06:14:00 PM -29.8740 157.1396 228° Southwest  Level FlightAware Approximate
Sun 06:14:46 PM -29.9527 157.0383 58° Northeast 36,000  Level Aus ATC (Calculated)
Sun 06:15:00 PM -29.9503 157.0413 228° Southwest  Level FlightAware Approximate
Sun 06:16:00 PM -30.0467 156.9168 228° Southwest  Level FlightAware Approximate
Sun 06:17:00 PM -30.1229 156.8181 228° Southwest  Level FlightAware Approximate
Sun 06:18:00 PM -30.1989 156.7193 228° Southwest  Level FlightAware Approximate
Sun 06:18:51 PM -29.4119 158.0184 228° Southwest 424 488 34,100  Level Aus ATC (RADAR)
Sun 06:19:36 PM -29.4768 157.9483 223° Southwest 427 491 34,100  Level Aus ATC (RADAR)
Sun 06:20:11 PM -29.5265 157.8944 223° Southwest 424 488 34,100  Level Aus ATC (RADAR)
Sun 06:20:46 PM -29.5762 157.8400 224° Southwest 423 487 34,100  Level Aus ATC (RADAR)
Sun 06:21:21 PM -29.6255 157.7858 224° Southwest 422 486 34,100  Level Aus ATC (RADAR)
Sun 06:22:30 PM -29.7252 157.6774 223° Southwest 422 486 34,100  Level Aus ATC (RADAR)
Sun 06:22:55 PM -29.7616 157.6382 223° Southwest 424 488 34,100  Level Aus ATC (RADAR)
Sun 06:23:20 PM -29.7974 157.5995 223° Southwest 424 488 34,100  Level Aus ATC (RADAR)
Sun 06:23:55 PM -29.8462 157.5452 224° Southwest 422 486 34,100  Level Aus ATC (RADAR)
Sun 06:24:35 PM -29.9024 157.4832 224° Southwest 420 483 34,100  Level Aus ATC (RADAR)
Sun 06:25:10 PM -29.9525 157.4286 223° Southwest 422 486 34,100  Level Aus ATC (RADAR)
Sun 06:25:45 PM -30.0012 157.3742 224° Southwest 420 483 34,100  Level Aus ATC (RADAR)
Sun 06:26:20 PM -30.0484 157.3209 224° Southwest 415 478 34,100  Level Aus ATC (RADAR)
Sun 06:27:30 PM -30.1471 157.2117 224° Southwest 420 483 34,100  Level Aus ATC (RADAR)
Sun 06:28:00 PM -30.1893 157.1645 224° Southwest 421 484 34,100  Level Aus ATC (RADAR)
Sun 06:28:25 PM -30.2249 157.1247 224° Southwest 424 488 34,100  Level Aus ATC (RADAR)
Sun 06:29:00 PM -30.2735 157.0706 224° Southwest 420 483 34,100  Level Aus ATC (RADAR)
Sun 06:29:45 PM -30.3383 156.9988 224° Southwest 426 490 34,100  Level Aus ATC (RADAR)
Sun 06:30:20 PM -30.3875 156.9439 224° Southwest 425 489 34,100  Level Aus ATC (RADAR)
Sun 06:30:55 PM -30.4350 156.8904 224° Southwest 417 480 34,100  Level Aus ATC (RADAR)
Sun 06:31:29 PM -30.4838 156.8358 224° Southwest 417 480 34,100  Level Aus ATC (RADAR)
Sun 06:32:30 PM -30.5688 156.7407 224° Southwest 422 486 34,100  Level Aus ATC (RADAR)
Sun 06:33:10 PM -30.6249 156.6772 224° Southwest 423 487 34,100  Level Aus ATC (RADAR)
Sun 06:33:44 PM -30.6741 156.6223 224° Southwest 422 486 34,100  Level Aus ATC (RADAR)
Sun 06:34:19 PM -30.7227 156.5673 224° Southwest 420 483 34,100  Level Aus ATC (RADAR)
Sun 06:34:54 PM -30.7711 156.5126 224° Southwest 417 480 34,100 80 Level Aus ATC (RADAR)
Sun 06:35:34 PM -30.8264 156.4503 224° Southwest 416 479 34,200 133 Climbing Aus ATC (RADAR)
Sun 06:36:24 PM -30.8951 156.3730 224° Southwest 413 475 34,300  Climbing Aus ATC (RADAR)
Sun 06:36:39 PM -30.9155 156.3497 224° Southwest 413 475 34,200 -141 Descending Aus ATC (RADAR)
Sun 06:37:49 PM -31.0101 156.2423 224° Southwest 407 468 34,100 63 Descending Aus ATC (RADAR)
Sun 06:38:14 PM -31.0435 156.2043 224° Southwest 405 466 34,300 200 Climbing Aus ATC (RADAR)
Sun 06:38:49 PM -31.0902 156.1508 224° Southwest 403 464 34,300  Level Aus ATC (RADAR)
Sun 06:39:34 PM -31.1497 156.0831 224° Southwest 401 461 34,300  Level Aus ATC (RADAR)
Sun 06:40:09 PM -31.1961 156.0301 224° Southwest 400 460 34,300  Level Aus ATC (RADAR)
Sun 06:40:43 PM -31.2421 155.9772 225° Southwest 398 458 34,300  Level Aus ATC (RADAR)
Sun 06:41:18 PM -31.2879 155.9243 225° Southwest 398 458 34,300 -55 Level Aus ATC (RADAR)
Sun 06:42:33 PM -31.3863 155.8112 224° Southwest 398 458 34,200  Descending Aus ATC (RADAR)
Sun 06:42:58 PM -31.4190 155.7732 225° Southwest 398 458 34,300 120 Climbing Aus ATC (RADAR)
Sun 06:43:23 PM -31.4524 155.7350 224° Southwest 401 461 34,300  Level Aus ATC (RADAR)
Sun 06:43:53 PM -31.4923 155.6891 224° Southwest 403 464 34,300  Level Aus ATC (RADAR)
Sun 06:44:38 PM -31.5521 155.6200 225° Southwest 403 464 34,300 -75 Level Aus ATC (RADAR)
Sun 06:45:13 PM -31.5987 155.5661 225° Southwest 404 465 34,200  Descending Aus ATC (RADAR)
Sun 06:45:48 PM -31.6453 155.5120 225° Southwest 405 466 34,300 80 Climbing Aus ATC (RADAR)
Sun 06:46:28 PM -31.6987 155.4499 225° Southwest 407 468 34,300  Level Aus ATC (RADAR)
Sun 06:48:03 PM -31.8262 155.3010 225° Southwest 410 472 34,300 -151 Level Aus ATC (RADAR)
Sun 06:48:27 PM -31.8591 155.2629 224° Southwest 411 473 34,000  Descending FlightAware ADS-B (YPLB)
Sun 06:48:28 PM -31.8600 155.2620 224° Southwest 410 472 34,300  Climbing Aus ATC (RADAR)
Sun 06:48:57 PM -31.8996 155.2159 224° Southwest 412 474 34,000 -305 Descending FlightAware ADS-B (YPLB)
Sun 06:49:27 PM -31.9241 155.1873 225° Southwest 412 474 34,000  Level FlightAware ADS-B (YPLB)
Sun 06:49:59 PM -31.9803 155.1209 225° Southwest 411 473 34,000  Level FlightAware ADS-B (YPLB)
Sun 06:50:35 PM -32.0323 155.0594 224° Southwest 411 473 34,000  Level FlightAware ADS-B (YPLB)
Sun 06:51:08 PM -32.0766 155.0080 224° Southwest 410 472 34,000  Level FlightAware ADS-B (YPLB)
Sun 06:51:48 PM -32.1299 154.9451 225° Southwest 408 470 34,000  Level FlightAware ADS-B (YPLB)
Sun 06:52:19 PM -32.1617 154.9076 225° Southwest 406 467 34,000  Level FlightAware ADS-B (YPLB)
Sun 06:52:49 PM -32.2101 154.8503 225° Southwest 405 466 34,000  Level FlightAware ADS-B (YPLB)
Sun 06:53:29 PM -32.2635 154.7872 225° Southwest 403 464 34,000  Level FlightAware ADS-B (YPLB)
Sun 06:54:00 PM -32.3039 154.7393 225° Southwest 403 464 34,000  Level FlightAware ADS-B (YPLB)
Sun 06:54:39 PM -32.3551 154.6785 225° Southwest 400 460 34,000  Level FlightAware ADS-B (YPLB)
Sun 06:55:10 PM -32.3953 154.6306 225° Southwest 386 444 34,000  Level FlightAware ADS-B (YPLB)
Sun 06:55:40 PM -32.4335 154.5850 225° Southwest 386 444 34,000 234 Level FlightAware ADS-B (YPLB)
Sun 06:56:27 PM -32.4923 154.5154 225° Southwest 387 445 34,300  Climbing Aus ATC (RADAR)
Sun 06:56:38 PM -32.5051 154.4998 225° Southwest 384 442 34,000 -419 Descending FlightAware ADS-B (YPLB)
Sun 06:57:10 PM -32.5461 154.4510 225° Southwest 384 442 34,000 281 Level FlightAware ADS-B (YPLB)
Sun 06:57:42 PM -32.5862 154.4038 225° Southwest 385 443 34,300  Climbing Aus ATC (RADAR)
Sun 06:57:46 PM -32.5857 154.4039 225° Southwest 391 450 34,000 -462 Descending FlightAware ADS-B (YPLB)
Sun 06:58:21 PM -32.6358 154.3440 225° Southwest 398 458 34,000  Level FlightAware ADS-B (YPLB)
Sun 06:58:59 PM -32.6859 154.2833 225° Southwest 398 458 34,000  Level FlightAware ADS-B (YPLB)
Sun 06:59:31 PM -32.7264 154.2344 225° Southwest 399 459 34,000  Level FlightAware ADS-B (YPLB)
Sun 07:00:08 PM -32.7750 154.1761 225° Southwest 399 459 34,000  Level FlightAware ADS-B (YPLB)
Sun 07:00:38 PM -32.8146 154.1288 225° Southwest 399 459 34,000  Level FlightAware ADS-B (YPLB)
Sun 07:01:18 PM -32.8671 154.0655 225° Southwest 400 460 34,000  Level FlightAware ADS-B (YPLB)
Sun 07:01:48 PM -32.9045 154.0204 225° Southwest 400 460 34,000  Level FlightAware ADS-B (YPLB)
Sun 07:02:20 PM -32.9468 153.9690 225° Southwest 401 461 34,000  Level FlightAware ADS-B (YPLB)
Sun 07:02:59 PM -32.9973 153.9076 225° Southwest 400 460 34,000  Level FlightAware ADS-B (YPLB)
Sun 07:03:37 PM -33.0476 153.8462 225° Southwest 401 461 34,000  Level FlightAware ADS-B (YPLB)
Sun 07:04:09 PM -33.0878 153.7974 225° Southwest 400 460 34,000 277 Level FlightAware ADS-B (YPLB)
Sun 07:04:42 PM -33.1294 153.7472 225° Southwest 390 449 34,300  Climbing Aus ATC (RADAR)
Sun 07:04:46 PM -33.1364 153.7382 226° Southwest 401 461 34,000  Descending FlightAware ADS-B
Sun 07:05:17 PM -33.1747 153.6920 226° Southwest 391 450 34,300  Climbing Aus ATC (RADAR)
Sun 07:05:19 PM -33.1771 153.6889 225° Southwest 399 459 34,000 -514 Descending FlightAware ADS-B (YPLB)
Sun 07:05:52 PM -33.2218 153.6344 226° Southwest 399 459 34,000  Level FlightAware ADS-B
Sun 07:06:30 PM -33.2706 153.5745 225° Southwest 397 457 34,000  Level FlightAware ADS-B (YPLB)
Sun 07:07:00 PM -33.3074 153.5292 225° Southwest 396 456 34,000  Level FlightAware ADS-B (YPLB)
Sun 07:07:40 PM -33.3592 153.4655 226° Southwest 397 457 34,000  Level FlightAware ADS-B (YPLB)
Sun 07:08:20 PM -33.4101 153.4028 225° Southwest 399 459 34,000  Level FlightAware ADS-B (YPLB)
Sun 07:08:59 PM -33.4610 153.3399 226° Southwest 400 460 34,000  Level FlightAware ADS-B
Sun 07:09:30 PM -33.5008 153.2909 225° Southwest 400 460 34,000  Level FlightAware ADS-B (YPLB)
Sun 07:10:00 PM -33.5394 153.2433 226° Southwest 401 461 34,000  Level FlightAware ADS-B
Sun 07:10:30 PM -33.5800 153.1934 225° Southwest 401 461 34,000  Level FlightAware ADS-B (YPLB)
Sun 07:11:00 PM -33.6180 153.1461 226° Southwest 402 463 34,000  Level FlightAware ADS-B
Sun 07:11:30 PM -33.6558 153.0992 226° Southwest 403 464 34,000  Level FlightAware ADS-B (YPLB)
Sun 07:12:00 PM -33.6953 153.0501 226° Southwest 403 464 34,000 -100 Level FlightAware ADS-B (YPLB)
Sun 07:12:30 PM -33.7325 153.0001 233° Southwest 405 466 33,900 -1,100 Descending FlightAware ADS-B (YPLB)
Sun 07:13:00 PM -33.7590 152.9407 247° West 405 466 32,900 -2,361 Descending FlightAware ADS-B (YPLB)
Sun 07:13:31 PM -33.7793 152.8765 248° West 403 464 31,500 -2,492 Descending FlightAware ADS-B (YPLB)
Sun 07:14:05 PM -33.8016 152.8067 249° West 397 457 30,200 -2,400 Descending FlightAware ADS-B
Sun 07:14:36 PM -33.8220 152.7424 249° West 394 453 28,900 -2,323 Descending FlightAware ADS-B
Sun 07:15:07 PM -33.8417 152.6806 249° West 392 451 27,800 -2,156 Descending FlightAware ADS-B
Sun 07:15:40 PM -33.8630 152.6134 249° West 387 445 26,600 -2,250 Descending FlightAware ADS-B (YPLB)
Sun 07:16:11 PM -33.8824 152.5520 249° West 381 438 25,400 -2,262 Descending FlightAware ADS-B (YPLB)
Sun 07:16:41 PM -33.9013 152.4924 249° West 374 430 24,300 -2,300 Descending FlightAware ADS-B (YPLB)
Sun 07:17:11 PM -33.9193 152.4360 249° West 368 423 23,100 -2,300 Descending FlightAware ADS-B
Sun 07:17:41 PM -33.9385 152.3748 249° West 361 415 22,000 -1,869 Descending FlightAware ADS-B (YPLB)
Sun 07:18:12 PM -33.9548 152.3209 250° West 342 394 21,200 -1,837 Descending FlightAware ADS-B
Sun 07:19:19 PM -33.9912 152.2062 248° West 318 366 19,000 -2,056 Descending FlightAware ADS-B (YPLB)
Sun 07:20:00 PM -34.0123 152.1398 249° West 314 361 17,500 -1,875 Descending FlightAware ADS-B (YPLB)
Sun 07:20:39 PM -34.0179 152.1217 250° West 318 366 16,500 -1,869 Descending FlightAware ADS-B
Sun 07:21:01 PM -34.0321 152.0364 275° West 321 369 15,600 -1,846 Descending FlightAware ADS-B (YPLB)
Sun 07:21:31 PM -34.0266 151.9837 277° West 315 362 14,900 -1,457 Descending FlightAware ADS-B (YPLB)
Sun 07:22:11 PM -34.0195 151.9137 276° West 309 356 13,900 -1,481 Descending FlightAware ADS-B (YPLB)
Sun 07:22:48 PM -34.0144 151.8617 277° West 304 350 13,000 -1,459 Descending FlightAware ADS-B
Sun 07:23:25 PM -34.0072 151.7929 277° West 296 341 12,100 -1,075 Descending FlightAware ADS-B
Sun 07:23:55 PM -34.0017 151.7429 277° West 289 333 11,800 -1,167 Descending Aus ATC (RADAR)
Sun 07:24:01 PM -34.0007 151.7319 277° West 298 343 11,400 -2,093 Descending FlightAware ADS-B (YPLB)
Sun 07:24:38 PM -33.9944 151.6701 277° West 306 352 10,300 -1,789 Descending FlightAware ADS-B
Sun 07:24:58 PM -33.9909 151.6359 277° West 308 354 9,700 -1,650 Descending FlightAware ADS-B
Sun 07:25:18 PM -33.9889 151.6164 276° West 306 352 9,200 -1,650 Descending FlightAware ADS-B
Sun 07:25:38 PM -33.9849 151.5748 277° West 305 351 8,600 -1,200 Descending FlightAware ADS-B
Sun 07:25:58 PM -33.9809 151.5374 278° West 297 342 8,400 -750 Descending FlightAware ADS-B
Sun 07:26:18 PM -33.9773 151.5046 277° West 294 338 8,100 -750 Descending FlightAware ADS-B
Sun 07:26:38 PM -33.9750 151.4836 277° West 289 333 7,900 -750 Descending FlightAware ADS-B
Sun 07:26:58 PM -33.9703 151.4399 277° West 287 330 7,600 -750 Descending FlightAware ADS-B
Sun 07:27:18 PM -33.9672 151.4100 278° West 284 327 7,400 -632 Descending FlightAware ADS-B
Sun 07:27:36 PM -33.9639 151.3791 277° West 285 328 7,200 -750 Descending FlightAware ADS-B (YCVB)
Sun 07:27:50 PM -33.9617 151.3560 276° West 285 328 7,000 -720 Descending FlightAware ADS-B (YPLB)
Sun 07:28:01 PM -33.9599 151.3399 280° West 287 330 6,900 -600 Descending FlightAware ADS-B (YRAY)
Sun 07:28:10 PM -33.9564 151.3265 290° West 289 333 6,800 -857 Descending FlightAware ADS-B (YPLB)
Sun 07:28:15 PM -33.9526 151.3184 300° West 290 334 6,700 -1,091 Descending FlightAware ADS-B (YCVB)
Sun 07:28:21 PM -33.9477 151.3112 312° West 288 331 6,600 -600 Descending FlightAware ADS-B (YRAY)
Sun 07:28:25 PM -33.9438 151.3069 318° Northwest 286 329 6,600  Level FlightAware ADS-B (YCVB)
Sun 07:28:31 PM -33.9368 151.3013 326° Northwest 286 329 6,600 -667 Level FlightAware ADS-B (YPLB)
Sun 07:28:34 PM -33.9336 151.2993 335° Northwest 287 330 6,500 -600 Descending FlightAware ADS-B (YCVB)
Sun 07:28:41 PM -33.9249 151.2958 344° North 285 328 6,500 -500 Level FlightAware ADS-B (YRAY)
Sun 07:28:46 PM -33.9187 151.2940 347° North 286 329 6,400 -600 Descending FlightAware ADS-B (YCVB)
Sun 07:29:01 PM -33.8997 151.2889 348° North 282 325 6,300 -375 Descending FlightAware ADS-B (YRAY)
Sun 07:29:18 PM -33.8788 151.2834 348° North 273 314 6,200 -486 Descending FlightAware ADS-B
Sun 07:29:38 PM -33.8555 151.2769 347° North 260 299 6,000 -774 Descending FlightAware ADS-B
Sun 07:29:49 PM -33.8407 151.2727 346° North 257 296 5,800 -1,000 Descending FlightAware ADS-B (YPLB)
Sun 07:30:08 PM -33.8198 151.2667 347° North 256 295 5,500 -1,029 Descending FlightAware ADS-B
Sun 07:30:24 PM -33.8010 151.2613 346° North 253 291 5,200 -1,125 Descending FlightAware ADS-B (YCVB)
Sun 07:30:40 PM -33.7862 151.2570 346° North 251 289 4,900 -1,071 Descending FlightAware ADS-B
Sun 07:30:52 PM -33.7705 151.2522 345° North 248 285 4,700 -1,071 Descending FlightAware ADS-B (YPLB)
Sun 07:31:08 PM -33.7530 151.2467 344° North 246 283 4,400 -818 Descending FlightAware ADS-B
Sun 07:31:14 PM -33.7462 151.2431 333° Northwest 237 273 4,400 -600 Level FlightAware ADS-B (YCVB)
Sun 07:31:18 PM -33.7439 151.2413 324° Northwest 244 281 4,300 -750 Descending FlightAware ADS-B
Sun 07:31:22 PM -33.7384 151.2355 316° Northwest 244 281 4,300 -600 Level FlightAware ADS-B (YCVB)
Sun 07:31:28 PM -33.7379 151.2350 308° West 244 281 4,200 -750 Descending FlightAware ADS-B
Sun 07:31:38 PM -33.7307 151.2186 286° West 243 280 4,100 -429 Descending FlightAware ADS-B
Sun 07:31:42 PM -33.7298 151.2116 276° West 241 277 4,100 -545 Level FlightAware ADS-B
Sun 07:31:49 PM -33.7298 151.2035 268° West 236 272 4,000 -667 Descending FlightAware ADS-B (YRAY)
Sun 07:32:00 PM -33.7317 151.1878 257° West 226 260 3,900 -800 Descending FlightAware ADS-B (YPLB)
Sun 07:32:04 PM -33.7331 151.1839 249° West 219 252 3,800 -1,500 Descending FlightAware ADS-B (YCVB)
Sun 07:32:08 PM -33.7345 151.1811 241° Southwest 218 251 3,700 -600 Descending FlightAware ADS-B
Sun 07:32:14 PM -33.7390 151.1746 225° Southwest 205 236 3,700 -462 Level FlightAware ADS-B (YCVB)
Sun 07:32:21 PM -33.7439 151.1705 213° Southwest 197 227 3,600 -600 Descending FlightAware ADS-B (YPLB)
Sun 07:32:24 PM -33.7468 151.1690 203° Southwest 192 221 3,600 -667 Level FlightAware ADS-B (YCVB)
Sun 07:32:39 PM -33.7590 151.1644 197° South 185 213 3,400 -938 Descending FlightAware ADS-B (YPLB)
Sun 07:32:56 PM -33.7729 151.1590 199° South 169 194 3,100 -750 Descending FlightAware ADS-B (YCVB)
Sun 07:33:11 PM -33.7838 151.1547 198° South 173 199 3,000 -720 Descending FlightAware ADS-B (YPLB)
Sun 07:33:21 PM -33.7919 151.1518 194° South 166 191 2,800 -923 Descending FlightAware ADS-B (YPLB)
Sun 07:33:24 PM -33.7941 151.1516 186° South 163 188 2,800 -750 Level FlightAware ADS-B (YRAY)
Sun 07:33:29 PM -33.7986 151.1516 360° North 160 184 2,700 -857 Descending FlightAware ADS-B (YPLB)
Sun 07:33:38 PM -33.8000 151.1516 176° South 157 181 2,600 -643 Descending FlightAware ADS-B
Sun 07:33:57 PM -33.8178 151.1539 171° South 150 173 2,400 -706 Descending FlightAware ADS-B (YRAY)
Sun 07:34:12 PM -33.8270 151.1561 167° South 152 175 2,200 -774 Descending FlightAware ADS-B
Sun 07:34:28 PM -33.8364 151.1587 167° South 152 175 2,000 -909 Descending FlightAware ADS-B
Sun 07:34:45 PM -33.8504 151.1626 168° South 152 175 1,700 -1,000 Descending FlightAware ADS-B
Sun 07:34:58 PM -33.8593 151.1648 167° South 152 175 1,500 -828 Descending FlightAware ADS-B (YPLB)
Sun 07:35:14 PM -33.8706 151.1678 167° South 152 175 1,300 -774 Descending FlightAware ADS-B (YCVB)
Sun 07:35:29 PM -33.8811 151.1707 168° South 158 182 1,100 -692 Descending FlightAware ADS-B (YRAY)
Sun 07:35:40 PM -33.8890 151.1725 168° South 147 169 1,000 -857 Descending FlightAware ADS-B (YPLB)
Sun 07:35:50 PM -33.8953 151.1742 166° South 141 162 800 -857 Descending FlightAware ADS-B (YPLB)
Sun 07:36:08 PM -33.9059 151.1770 168° South 130 150 600 -581 Descending FlightAware ADS-B
Sun 07:36:21 PM -33.9139 151.1790 168° South 126 145 500 -600 Descending FlightAware ADS-B
Sun 07:36:38 PM -33.9230 151.1814 168° South 124 143 300 -649 Descending FlightAware ADS-B
Sun 07:36:58 PM -33.9343 151.1843 168° South 123 142 100 -600 Descending FlightAware ADS-B
Sun 07:37:16 PM -33.9365 151.1849 168° South 124 143 -333 Descending FlightAware ADS-B

Login

Don't have an account? Register now (free) for customized features, flight alerts, and more!